ADDS METAR Data INFO
IDs: Format: Raw Decoded Include TAF

Data at: 2309 UTC 15 Aug 2018

KSLR 152255Z AUTO 19013G16KT 10SM CLR 34/20 A2994 RMK AO2 T03420195
KSLR 152235Z AUTO 20012G18KT 10SM SCT055 34/20 A2994 RMK AO2 T03430197
KSLR 152215Z AUTO 18010G17KT 10SM CLR 35/20 A2994 RMK AO2 T03460199
KSLR 152155Z AUTO 19006G14KT 10SM CLR 35/20 A2995 RMK AO2 T03480199
KSLR 152135Z AUTO 19010G16KT 160V220 10SM CLR 35/20 A2995 RMK AO2 T03460198
KSLR 152115Z AUTO 21011G18KT 10SM SCT050 35/20 A2996 RMK AO2 T03450195
KSLR 152055Z AUTO 18007G15KT 10SM SCT050 35/20 A2996 RMK AO2 T03450201
KSLR 152035Z AUTO 21010G16KT 180V240 10SM SCT050 34/20 A2997 RMK AO2 T03440199
KSLR 152015Z AUTO 21008G14KT 10SM CLR 34/20 A2997 RMK AO2 T03440199
KSLR 151955Z AUTO 00000KT 10SM CLR 34/20 A2998 RMK AO2 T03410196
KSLR 151935Z AUTO 22011G14KT 10SM CLR 34/20 A2999 RMK AO2 T03380202
KSLR 151915Z AUTO 23011G19KT 10SM CLR 34/20 A2999 RMK AO2 T03380199
KSLR 151855Z AUTO 22013KT 10SM CLR 34/21 A2999 RMK AO2 T03350206
KSLR 151835Z AUTO 20010G15KT 10SM CLR 33/21 A3000 RMK AO2 T03310206
KSLR 151815Z AUTO 22013G18KT 10SM CLR 33/21 A3000 RMK AO2 T03280207
KSLR 151755Z AUTO 21012G21KT 10SM CLR 32/21 A3000 RMK AO2 T03230211 10323 20257
KSLR 151735Z AUTO 22015G21KT 10SM SCT037 32/21 A3001 RMK AO2 T03180208
KSLR 151715Z AUTO 21014KT 10SM CLR 32/21 A3001 RMK AO2 T03180210
KSLR 151655Z AUTO 22013G20KT 10SM SCT032 31/21 A3002 RMK AO2 LTG DSNT NE T03140212
KSLR 151635Z AUTO 22014G20KT 10SM SCT030 31/22 A3001 RMK AO2 T03100216
KSLR 151615Z AUTO 23014G19KT 10SM SCT028 30/22 A3001 RMK AO2 T03030218
KSLR 151555Z AUTO 22016G23KT 10SM BKN026 30/22 A3001 RMK AO2 T03000220
KSLR 151535Z AUTO 22016G22KT 3/4SM HZ BKN024 29/22 A3001 RMK AO2 T02940223
KSLR 151515Z AUTO 22018G23KT 10SM SCT022 29/22 A3001 RMK AO2 T02920222
KSLR 151455Z AUTO 22016G20KT 10SM SCT120 29/22 A3001 RMK AO2 T02860224
KSLR 151435Z AUTO 21016G20KT 10SM SCT018 BKN120 28/23 A3001 RMK AO2 LTG DSNT NE T02760226
KSLR 151415Z AUTO 21014G18KT 10SM SCT016 27/23 A3001 RMK AO2 T02730230
KSLR 151355Z AUTO 21012KT 10SM SCT016 27/23 A3001 RMK AO2 LTG DSNT N T02690230
KSLR 151335Z AUTO 21010G17KT 10SM SCT016 27/23 A3001 RMK AO2 T02670230
KSLR 151315Z AUTO 21009KT 7SM CLR 27/23 A3001 RMK AO2 LTG DSNT NE T02650228
KSLR 151255Z AUTO 20009KT 10SM CLR 26/23 A3001 RMK AO2 T02610226
KSLR 151235Z AUTO 19003KT 10SM CLR 26/23 A3000 RMK AO2 LTG DSNT NE T02600225
KSLR 151215Z AUTO 19005KT 7SM CLR 26/22 A2999 RMK AO2 T02600223
KSLR 151155Z AUTO 00000KT 10SM CLR 26/22 A2999 RMK AO2 LTG DSNT N T02570222 10283 20256
KSLR 151135Z AUTO 00000KT 10SM CLR 26/22 A2998 RMK AO2 LTG DSNT N T02570222
KSLR 151115Z AUTO 00000KT 10SM CLR 26/22 A2998 RMK AO2 LTG DSNT NE T02600221
KSLR 151055Z AUTO 20006KT 10SM CLR 26/22 A2997 RMK AO2 T02600222
KSLR 151035Z AUTO 00000KT 10SM CLR 26/22 A2997 RMK AO2 T02610221
KSLR 151015Z AUTO 19003KT 10SM CLR 26/22 A2996 RMK AO2 LTG DSNT N T02630221
KSLR 150955Z AUTO 00000KT 10SM CLR 27/22 A2996 RMK AO2 T02650220
KSLR 150935Z AUTO 00000KT 10SM CLR 27/22 A2996 RMK AO2 LTG DSNT N T02650219
KSLR 150915Z AUTO 00000KT 10SM CLR 27/22 A2996 RMK AO2 LTG DSNT N T02670217
KSLR 150855Z AUTO 00000KT 10SM CLR 27/22 A2997 RMK AO2 LTG DSNT NE T02700216
KSLR 150835Z AUTO 00000KT 10SM CLR 27/22 A2997 RMK AO2 T02710215
KSLR 150815Z AUTO 00000KT 10SM CLR 27/22 A2997 RMK AO2 T02720215
KSLR 150755Z AUTO 00000KT 10SM CLR 28/21 A2997 RMK AO2 T02750213
KSLR 150735Z AUTO 00000KT 10SM CLR 28/21 A2997 RMK AO2 T02750212
KSLR 150715Z AUTO 18005KT 10SM CLR 28/21 A2997 RMK AO2 LTG DSNT N T02790211
KSLR 150655Z AUTO 00000KT 10SM CLR 28/21 A2996 RMK AO2 T02810210
KSLR 150635Z AUTO 00000KT 10SM CLR 28/21 A2996 RMK AO2 T02820208
KSLR 150615Z AUTO 18003KT 10SM CLR 28/21 A2996 RMK AO2 T02820207
KSLR 150555Z AUTO 18007KT 10SM CLR 28/21 A2995 RMK AO2 T02830205 10314 20273 403280232
KSLR 150535Z AUTO 17006KT 10SM CLR 29/21 A2995 RMK AO2 LTG DSNT N T02850205
KSLR 150515Z AUTO 17005G16KT 10SM CLR 29/20 A2995 RMK AO2 T02860203
KSLR 150455Z AUTO 17003KT 10SM CLR 29/20 A2996 RMK AO2 T02870203
KSLR 150435Z AUTO 00000KT 10SM CLR 29/21 A2996 RMK AO2 T02850205
KSLR 150415Z AUTO 16003KT 10SM CLR 28/21 A2996 RMK AO2 T02820206
KSLR 150355Z AUTO 00000KT 10SM CLR 27/21 A2996 RMK AO2 T02740210
KSLR 150335Z AUTO 00000KT 10SM CLR 28/21 A2996 RMK AO2 T02750211
KSLR 150315Z AUTO 00000KT 10SM CLR 28/21 A2995 RMK AO2 T02750210
KSLR 150255Z AUTO 00000KT 10SM CLR 28/21 A2994 RMK AO2 T02780210
KSLR 150235Z AUTO 00000KT 10SM CLR 28/21 A2994 RMK AO2 T02800211
KSLR 150215Z AUTO 00000KT 10SM CLR 28/21 A2993 RMK AO2 T02820210
KSLR 150155Z AUTO 00000KT 10SM CLR 29/21 A2993 RMK AO2 LTG DSNT NW T02890207
KSLR 150135Z AUTO 00000KT 10SM CLR 29/21 A2992 RMK AO2 T02930208
KSLR 150115Z AUTO 00000KT 10SM CLR 30/21 A2991 RMK AO2 T02980206
KSLR 150055Z AUTO 00000KT 7SM CLR 31/21 A2991 RMK AO2 T03050205
KSLR 150035Z AUTO 00000KT 10SM CLR 31/20 A2991 RMK AO2 T03070202
KSLR 150015Z AUTO 00000KT 10SM CLR 31/20 A2991 RMK AO2 T03120200
KSLR 142355Z AUTO 00000KT 7SM CLR 31/20 A2993 RMK AO2 T03140200 10328 20295
KSLR 142335Z AUTO 00000KT 7SM CLR 32/20 A2994 RMK AO2 T03150203
KSLR 142315Z AUTO 00000KT 10SM CLR 32/20 A2996 RMK AO2 T03170198
KSLR 142255Z AUTO 00000KT 10SM CLR 32/20 A2996 RMK AO2 T03200195
KSLR 142235Z AUTO 17006KT 7SM CLR 32/19 A2996 RMK AO2 T03190194
KSLR 142215Z AUTO 00000KT 7SM CLR 32/19 A2996 RMK AO2 T03210192
KSLR 142155Z AUTO 16009G16KT 7SM SCT050 32/19 A2997 RMK AO2 T03230191
KSLR 142135Z AUTO 00000KT 7SM CLR 32/20 A2998 RMK AO2 T03230200
KSLR 142115Z AUTO 18005KT 7SM CLR 32/20 A2999 RMK AO2 T03190196
KSLR 142055Z AUTO 19007G14KT 7SM SCT050 SCT060 32/19 A2999 RMK AO2 T03210194
KSLR 142035Z AUTO 19005KT 7SM BKN050 BKN060 BKN075 32/20 A3000 RMK AO2 T03200202
KSLR 142015Z AUTO 19010G14KT 7SM BKN048 BKN060 BKN070 32/20 A3000 RMK AO2 T03230204
KSLR 141955Z AUTO 00000KT 7SM SCT047 SCT050 32/20 A3001 RMK AO2 LTG DSNT NW T03150202
KSLR 141935Z AUTO 00000KT 7SM CLR 31/20 A3001 RMK AO2 T03120203
KSLR 141915Z AUTO 00000KT 7SM SCT042 31/20 A3002 RMK AO2 LTG DSNT NW T03120203
KSLR 141855Z AUTO 00000KT 7SM SCT040 31/20 A3002 RMK AO2 T03050198
KSLR 141835Z AUTO 00000KT 7SM SCT038 31/20 A3002 RMK AO2 LTG DSNT NW T03060200
KSLR 141815Z AUTO 00000KT 7SM VCTS BKN038 30/21 A3003 RMK AO2 LTG DSNT NW T02960207
KSLR 141755Z AUTO 00000KT 7SM BKN035 BKN042 30/21 A3004 RMK AO2 LTG DSNT NW T02950206 10296 20232
KSLR 141735Z AUTO 18007KT 7SM SCT035 29/21 A3004 RMK AO2 LTG DSNT NW T02940209
KSLR 141715Z AUTO 21007KT 7SM SCT036 30/20 A3004 RMK AO2 LTG DSNT NW T02950203
KSLR 141655Z AUTO 21009KT 7SM SCT034 29/20 A3004 RMK AO2 LTG DSNT W AND NW T02920201
KSLR 141635Z AUTO 22005G16KT 7SM SCT030 29/21 A3004 RMK AO2 T02870207
KSLR 141615Z AUTO 20011KT 7SM SCT025 SCT030 SCT036 28/21 A3004 RMK AO2 LTG DSNT W T02830206
KSLR 141555Z AUTO 21010G14KT 7SM SCT024 BKN030 BKN036 28/21 A3004 RMK AO2 LTG DSNT N AND W T02780209
KSLR 141535Z AUTO 20011G15KT 7SM BKN022 BKN028 28/21 A3003 RMK AO2 T02760213
KSLR 141515Z AUTO 22003G16KT 7SM SCT018 BKN024 27/22 A3003 RMK AO2 T02720217
KSLR 141455Z AUTO 20013G17KT 7SM BKN016 OVC022 27/23 A3003 RMK AO2 LTG DSNT N T02710227
KSLR 141435Z AUTO 19004KT 7SM BKN016 BKN022 27/23 A3003 RMK AO2 T02650233
KSLR 141415Z AUTO 00000KT 7SM SCT014 SCT022 BKN110 26/23 A3003 RMK AO2 T02580234
KSLR 141355Z AUTO 00000KT 7SM SCT024 SCT100 26/23 A3003 RMK AO2 T02550234
KSLR 141335Z AUTO 00000KT 7SM BKN100 25/24 A3003 RMK AO2 T02510235
KSLR 141315Z AUTO 00000KT 7SM SCT025 BKN100 25/23 A3002 RMK AO2 T02470232
KSLR 141255Z AUTO 00000KT 7SM SCT025 SCT110 24/23 A3002 RMK AO2 LTG DSNT NW T02410233
KSLR 141235Z AUTO 00000KT 7SM SCT095 24/22 A3002 RMK AO2 T02350221
KSLR 141215Z AUTO 00000KT 7SM SCT095 24/21 A3001 RMK AO2 T02350206
KSLR 141155Z AUTO 00000KT 7SM BKN095 23/21 A3001 RMK AO2 60004 70005 T02330212 10260 20232
KSLR 141135Z AUTO 00000KT 10SM BKN095 23/20 A3001 RMK AO2 T02320195
KSLR 141115Z AUTO 00000KT 7SM SCT095 23/21 A3001 RMK AO2 LTG DSNT NW T02340214